createdAt,value
2018-06-16T00:01:35.347Z,100877.11
2018-06-16T00:04:04.978Z,100882.88
2018-06-16T00:06:33.953Z,100878.11
2018-06-16T00:09:03.631Z,100879.45
2018-06-16T00:11:36.250Z,100875.39
2018-06-16T00:14:05.807Z,100877.61
2018-06-16T00:16:34.768Z,100879.27
2018-06-16T00:19:04.004Z,100876.66
2018-06-16T00:21:35.244Z,100883.37
2018-06-16T00:24:04.392Z,100875.23
2018-06-16T00:26:33.519Z,100880.35
2018-06-16T00:29:02.568Z,100879.88
2018-06-16T00:31:36.054Z,100880.01
2018-06-16T00:34:05.078Z,100878.61
2018-06-16T00:36:34.179Z,100874.41
2018-06-16T00:39:03.249Z,100874.02
2018-06-16T00:41:35.958Z,100877.84
2018-06-16T00:44:05.024Z,100872.69
2018-06-16T00:46:34.182Z,100866.44
2018-06-16T00:49:03.212Z,100870.64
2018-06-16T00:51:35.827Z,100867.98
2018-06-16T00:54:04.888Z,100871.77
2018-06-16T00:56:34.822Z,100873.09
2018-06-16T00:59:03.779Z,100872.14
2018-06-16T01:01:35.869Z,100873.48
2018-06-16T01:04:05.027Z,100868.09
2018-06-16T01:06:34.264Z,100872.64
2018-06-16T01:09:03.898Z,100865.48
2018-06-16T01:11:34.802Z,100872.20
2018-06-16T01:14:04.107Z,100871.83
2018-06-16T01:16:33.211Z,100872.09
2018-06-16T01:19:02.314Z,100870.83
2018-06-16T01:21:38.054Z,100877.77
2018-06-16T01:24:06.997Z,100879.07
2018-06-16T01:26:36.242Z,100891.94
2018-06-16T01:29:05.336Z,100883.86
2018-06-16T01:31:34.541Z,100881.07
2018-06-16T01:34:03.876Z,100880.53
2018-06-16T01:36:32.806Z,100878.91
2018-06-16T01:39:02.498Z,100883.58
2018-06-16T01:41:34.738Z,100879.45
2018-06-16T01:44:04.072Z,100874.31
2018-06-16T01:46:33.772Z,100868.95
2018-06-16T01:49:03.535Z,100875.98
2018-06-16T01:51:35.736Z,100877.36
2018-06-16T01:54:05.011Z,100876.02
2018-06-16T01:56:34.075Z,100880.31
2018-06-16T01:59:03.221Z,100874.16
2018-06-16T02:01:35.242Z,100874.47
2018-06-16T02:04:04.575Z,100876.14
2018-06-16T02:06:34.053Z,100879.23
2018-06-16T02:09:03.274Z,100873.83
2018-06-16T02:11:35.850Z,100871.30
2018-06-16T02:14:05.111Z,100876.56
2018-06-16T02:16:34.052Z,100873.29
2018-06-16T02:19:03.171Z,100870.59
2018-06-16T02:21:35.379Z,100873.23
2018-06-16T02:24:04.506Z,100872.86
2018-06-16T02:26:33.575Z,100870.50
2018-06-16T02:29:02.930Z,100865.16
2018-06-16T02:31:36.106Z,100863.53
2018-06-16T02:34:05.491Z,100869.21
2018-06-16T02:36:34.460Z,100872.05
2018-06-16T02:39:03.996Z,100868.36
2018-06-16T02:41:34.903Z,100867.87
2018-06-16T02:44:03.879Z,100877.13
2018-06-16T02:46:33.115Z,100872.42
2018-06-16T02:49:02.479Z,100876.27
2018-06-16T02:51:34.993Z,100870.83
2018-06-16T02:54:04.455Z,100876.34
2018-06-16T02:56:33.375Z,100879.20
2018-06-16T02:59:02.507Z,100874.53
2018-06-16T03:01:35.842Z,100878.27
2018-06-16T03:04:05.136Z,100879.76
2018-06-16T03:06:34.972Z,100882.27
2018-06-16T03:09:04.767Z,100888.97
2018-06-16T03:11:34.179Z,100890.11
2018-06-16T03:14:03.162Z,100885.80
2018-06-16T03:16:32.403Z,100879.88
2018-06-16T03:19:01.868Z,100881.72
2018-06-16T03:21:35.804Z,100885.41
2018-06-16T03:24:04.895Z,100887.09
2018-06-16T03:26:33.975Z,100883.57
2018-06-16T03:29:03.141Z,100880.77
2018-06-16T03:31:35.816Z,100888.31
2018-06-16T03:34:05.109Z,100883.97
2018-06-16T03:36:34.157Z,100892.80
2018-06-16T03:39:03.551Z,100883.77
2018-06-16T03:41:35.644Z,100889.10
2018-06-16T03:44:05.192Z,100884.61
2018-06-16T03:46:34.460Z,100887.28
2018-06-16T03:49:03.547Z,100885.28
2018-06-16T03:51:35.702Z,100881.41
2018-06-16T03:54:04.647Z,100884.42
2018-06-16T03:56:33.639Z,100881.25
2018-06-16T03:59:03.167Z,100879.73
2018-06-16T04:01:35.775Z,100876.59
2018-06-16T04:04:05.217Z,100878.08
2018-06-16T04:06:34.565Z,100881.25
2018-06-16T04:09:04.951Z,100883.09
2018-06-16T04:11:34.915Z,100890.63
2018-06-16T04:14:03.992Z,100886.91
2018-06-16T04:16:32.923Z,100888.05
2018-06-16T04:19:02.175Z,100891.52
2018-06-16T04:21:34.482Z,100889.40
2018-06-16T04:24:03.457Z,100888.05
2018-06-16T04:26:32.662Z,100885.22
2018-06-16T04:29:01.731Z,100884.99
2018-06-16T04:31:33.924Z,100884.30
2018-06-16T04:34:03.007Z,100898.02
2018-06-16T04:36:32.142Z,100895.50
2018-06-16T04:39:01.207Z,100897.48
2018-06-16T04:41:33.584Z,100898.14
2018-06-16T04:44:03.142Z,100895.08
2018-06-16T04:46:32.382Z,100902.28
2018-06-16T04:49:01.467Z,100896.73
2018-06-16T04:51:33.965Z,100892.49
2018-06-16T04:54:03.031Z,100899.05
2018-06-16T04:56:32.183Z,100894.09
2018-06-16T04:59:01.700Z,100900.73
2018-06-16T05:01:34.470Z,100903.78
2018-06-16T05:04:03.670Z,100895.21
2018-06-16T05:06:32.931Z,100897.72
2018-06-16T05:09:01.859Z,100888.06
2018-06-16T05:11:35.716Z,100887.31
2018-06-16T05:14:05.411Z,100885.38
2018-06-16T05:16:34.748Z,100891.07
2018-06-16T05:19:04.284Z,100890.84
2018-06-16T05:21:34.151Z,100889.08
2018-06-16T05:24:03.242Z,100889.20
2018-06-16T05:26:32.170Z,100892.91
2018-06-16T05:29:01.121Z,100894.42
2018-06-16T05:31:33.724Z,100886.69
2018-06-16T05:34:03.623Z,100886.15
2018-06-16T05:36:32.562Z,100883.41
2018-06-16T05:39:01.815Z,100884.63
2018-06-16T05:41:34.926Z,100876.23
2018-06-16T05:44:04.008Z,100876.23
2018-06-16T05:46:33.094Z,100874.37
2018-06-16T05:49:02.624Z,100875.42
2018-06-16T05:51:35.689Z,100878.40
2018-06-16T05:54:04.663Z,100879.73
2018-06-16T05:56:33.875Z,100883.17
2018-06-16T05:59:02.922Z,100877.92
2018-06-16T06:01:34.185Z,100871.99
2018-06-16T06:04:03.359Z,100881.28
2018-06-16T06:06:32.688Z,100880.61
2018-06-16T06:09:02.590Z,100875.00
2018-06-16T06:11:35.932Z,100873.05
2018-06-16T06:14:05.899Z,100874.55
2018-06-16T06:16:35.580Z,100878.48
2018-06-16T06:19:04.692Z,100874.69
2018-06-16T06:21:34.049Z,100867.77
2018-06-16T06:24:03.979Z,100872.87
2018-06-16T06:26:33.299Z,100878.56
2018-06-16T06:29:02.585Z,100878.92
2018-06-16T06:31:35.448Z,100874.55
2018-06-16T06:34:04.579Z,100875.08
2018-06-16T06:36:33.866Z,100880.16
2018-06-16T06:39:04.378Z,100876.59
2018-06-16T06:41:35.357Z,100882.39
2018-06-16T06:44:05.050Z,100874.22
2018-06-16T06:46:34.110Z,100890.52
2018-06-16T06:49:03.083Z,100886.45
2018-06-16T06:51:36.081Z,100885.27
2018-06-16T06:54:05.006Z,100890.61
2018-06-16T06:56:34.362Z,100895.66
2018-06-16T06:59:03.615Z,100892.47
2018-06-16T07:01:34.890Z,100897.54
2018-06-16T07:04:04.016Z,100894.41
2018-06-16T07:06:33.035Z,100898.45
2018-06-16T07:09:02.923Z,100896.28
2018-06-16T07:11:36.111Z,100894.09
2018-06-16T07:14:05.326Z,100893.20
2018-06-16T07:16:35.025Z,100898.73
2018-06-16T07:19:04.174Z,100896.23
2018-06-16T07:21:34.647Z,100891.69
2018-06-16T07:24:03.835Z,100901.70
2018-06-16T07:26:33.303Z,100897.97
2018-06-16T07:29:02.974Z,100891.30
2018-06-16T07:31:35.833Z,100896.79
2018-06-16T07:34:05.171Z,100892.55
2018-06-16T07:36:34.126Z,100886.02
2018-06-16T07:39:03.780Z,100885.00
2018-06-16T07:41:36.339Z,100885.44
2018-06-16T07:44:05.923Z,100887.13
2018-06-16T07:46:35.136Z,100893.88
2018-06-16T07:49:04.100Z,100891.45
2018-06-16T07:51:34.844Z,100893.91
2018-06-16T07:54:03.847Z,100892.14
2018-06-16T07:56:32.872Z,100889.28
2018-06-16T07:59:03.140Z,100885.00
2018-06-16T08:01:34.848Z,100881.81
2018-06-16T08:04:04.019Z,100882.44
2018-06-16T08:06:33.261Z,100885.17
2018-06-16T08:09:02.608Z,100883.36
2018-06-16T08:11:34.979Z,100880.44
2018-06-16T08:14:04.147Z,100881.63
2018-06-16T08:16:33.387Z,100877.05
2018-06-16T08:19:02.637Z,100879.66
2018-06-16T08:21:35.240Z,100879.31
2018-06-16T08:24:04.557Z,100880.09
2018-06-16T08:26:34.332Z,100872.48
2018-06-16T08:29:04.264Z,100872.18
2018-06-16T08:31:35.344Z,100866.26
2018-06-16T08:34:04.531Z,100865.58
2018-06-16T08:36:33.736Z,100862.83
2018-06-16T08:39:02.900Z,100862.33
2018-06-16T08:41:36.219Z,100862.14
2018-06-16T08:44:05.353Z,100860.15
2018-06-16T08:46:36.491Z,100852.85
2018-06-16T08:49:06.798Z,100851.31
2018-06-16T08:51:36.178Z,100849.55
2018-06-16T08:54:05.798Z,100853.44
2018-06-16T08:56:35.176Z,100851.66
2018-06-16T08:59:04.310Z,100851.73
2018-06-16T09:01:35.332Z,100845.08
2018-06-16T09:04:04.445Z,100848.58
2018-06-16T09:06:33.543Z,100846.61
2018-06-16T09:09:03.109Z,100823.02
2018-06-16T09:11:33.877Z,100846.70
2018-06-16T09:14:03.310Z,100844.93
2018-06-16T09:16:32.616Z,100842.27
2018-06-16T09:19:01.659Z,100836.78
2018-06-16T09:21:34.467Z,100836.31
2018-06-16T09:24:03.875Z,100842.21
2018-06-16T09:26:33.703Z,100839.28
2018-06-16T09:29:02.760Z,100840.09
2018-06-16T09:31:36.259Z,100836.77
2018-06-16T09:34:06.245Z,100835.23
2018-06-16T09:36:35.887Z,100828.88
2018-06-16T09:39:09.092Z,100832.64
2018-06-16T09:41:38.112Z,100830.73
2018-06-16T09:44:08.180Z,100828.17
2018-06-16T09:46:37.301Z,100824.77
2018-06-16T09:49:06.464Z,100832.33
2018-06-16T09:51:36.149Z,100821.19
2018-06-16T09:54:05.455Z,100832.91
2018-06-16T09:56:35.336Z,100833.08
2018-06-16T09:59:04.612Z,100824.11
2018-06-16T10:01:36.378Z,100829.86
2018-06-16T10:04:05.663Z,100825.13
2018-06-16T10:06:34.636Z,100823.27
2018-06-16T10:09:05.564Z,100823.05
2018-06-16T10:11:34.811Z,100820.47
2018-06-16T10:14:03.985Z,100818.09
2018-06-16T10:16:33.556Z,100816.94
2018-06-16T10:19:03.774Z,100814.39
2018-06-16T10:21:35.012Z,100822.14
2018-06-16T10:24:03.958Z,100815.77
2018-06-16T10:26:32.976Z,100810.28
2018-06-16T10:29:02.107Z,100810.47
2018-06-16T10:31:34.587Z,100810.53
2018-06-16T10:34:03.619Z,100809.09
2018-06-16T10:36:32.900Z,100808.71
2018-06-16T10:39:02.104Z,100799.94
2018-06-16T10:41:35.378Z,100796.72
2018-06-16T10:44:04.606Z,100795.40
2018-06-16T10:46:33.720Z,100801.81
2018-06-16T10:49:02.755Z,100797.28
2018-06-16T10:51:33.850Z,100790.45
2018-06-16T10:54:02.995Z,100791.38
2018-06-16T10:56:32.254Z,100782.54
2018-06-16T10:59:01.800Z,100789.27
2018-06-16T11:01:34.511Z,100787.20
2018-06-16T11:04:03.522Z,100785.22
2018-06-16T11:06:32.518Z,100784.78
2018-06-16T11:09:02.388Z,100782.45
2018-06-16T11:11:34.933Z,100784.86
2018-06-16T11:14:04.240Z,100777.33
2018-06-16T11:16:33.519Z,100786.27
2018-06-16T11:19:02.660Z,100779.66
2018-06-16T11:21:36.371Z,100778.86
2018-06-16T11:24:05.769Z,100773.96
2018-06-16T11:26:34.958Z,100777.95
2018-06-16T11:29:04.200Z,100781.53
2018-06-16T11:31:35.015Z,100781.23
2018-06-16T11:34:04.170Z,100766.92
2018-06-16T11:36:33.635Z,100764.22
2018-06-16T11:39:02.723Z,100763.63
2018-06-16T11:41:37.286Z,100766.65
2018-06-16T11:44:08.194Z,100757.48
2018-06-16T11:46:40.268Z,100759.28
2018-06-16T11:49:10.203Z,100758.50
2018-06-16T11:51:39.605Z,100756.30
2018-06-16T11:54:08.558Z,100746.17
2018-06-16T11:56:37.774Z,100741.59
2018-06-16T11:59:06.802Z,100748.94
2018-06-16T12:01:35.799Z,100748.66
2018-06-16T12:04:04.995Z,100740.81
2018-06-16T12:06:34.248Z,100738.47
2018-06-16T12:09:03.474Z,100734.73
2018-06-16T12:11:34.259Z,100729.96
2018-06-16T12:14:03.833Z,100726.45
2018-06-16T12:16:33.080Z,100729.50
2018-06-16T12:19:02.208Z,100725.13
2018-06-16T12:21:35.136Z,100725.47
2018-06-16T12:24:04.148Z,100720.34
2018-06-16T12:26:33.562Z,100718.67
2018-06-16T12:29:02.914Z,100721.37
2018-06-16T12:31:35.505Z,100713.03
2018-06-16T12:34:05.192Z,100710.61
2018-06-16T12:36:34.532Z,100712.78
2018-06-16T12:39:04.337Z,100711.05
2018-06-16T12:41:35.018Z,100696.25
2018-06-16T12:44:04.536Z,100692.70
2018-06-16T12:46:33.823Z,100687.14
2018-06-16T12:49:03.023Z,100681.83
2018-06-16T12:51:34.083Z,100692.69
2018-06-16T12:54:03.097Z,100689.91
2018-06-16T12:56:33.299Z,100684.78
2018-06-16T12:59:02.196Z,100683.02
2018-06-16T13:01:34.847Z,100679.77
2018-06-16T13:04:03.884Z,100679.94
2018-06-16T13:06:33.287Z,100684.13
2018-06-16T13:09:02.572Z,100674.30
2018-06-16T13:11:35.719Z,100673.79
2018-06-16T13:14:04.987Z,100664.02
2018-06-16T13:16:34.188Z,100661.54
2018-06-16T13:19:03.356Z,100666.61
2018-06-16T13:21:34.239Z,100659.99
2018-06-16T13:24:03.940Z,100659.22
2018-06-16T13:26:33.044Z,100652.84
2018-06-16T13:29:02.158Z,100647.06
2018-06-16T13:31:35.249Z,100653.58
2018-06-16T13:34:04.371Z,100653.38
2018-06-16T13:36:33.641Z,100654.78
2018-06-16T13:39:03.420Z,100662.06
2018-06-16T13:41:34.433Z,100655.80
2018-06-16T13:44:03.728Z,100666.83
2018-06-16T13:46:33.003Z,100665.66
2018-06-16T13:49:02.023Z,100661.30
2018-06-16T13:51:34.883Z,100662.20
2018-06-16T13:54:04.492Z,100659.97
2018-06-16T13:56:33.837Z,100660.41
2018-06-16T13:59:03.533Z,100660.92
2018-06-16T14:01:34.598Z,100655.54
2018-06-16T14:04:04.458Z,100658.57
2018-06-16T14:06:34.243Z,100656.34
2018-06-16T14:09:03.771Z,100653.87
2018-06-16T14:11:34.706Z,100660.30
2018-06-16T14:14:04.444Z,100656.05
2018-06-16T14:16:34.582Z,100652.39
2018-06-16T14:19:03.834Z,100650.50
2018-06-16T14:21:34.512Z,100655.36
2018-06-16T14:24:03.664Z,100654.81
2018-06-16T14:26:32.763Z,100653.27
2018-06-16T14:29:01.728Z,100649.00
2018-06-16T14:31:35.847Z,100653.44
2018-06-16T14:34:05.171Z,100649.73
2018-06-16T14:36:35.084Z,100647.54
2018-06-16T14:39:05.587Z,100646.31
2018-06-16T14:41:35.247Z,100627.40
2018-06-16T14:44:04.322Z,100641.05
2018-06-16T14:46:33.643Z,100645.29
2018-06-16T14:49:02.907Z,100635.13
2018-06-16T14:51:36.170Z,100639.84
2018-06-16T14:54:05.606Z,100641.25
2018-06-16T14:56:34.928Z,100636.23
2018-06-16T14:59:04.579Z,100636.63
2018-06-16T15:01:34.506Z,100641.91
2018-06-16T15:04:03.634Z,100642.16
2018-06-16T15:06:32.704Z,100639.11
2018-06-16T15:09:01.884Z,100631.77
2018-06-16T15:11:35.906Z,100635.14
2018-06-16T15:14:05.489Z,100634.73
2018-06-16T15:16:35.012Z,100638.27
2018-06-16T15:19:04.243Z,100624.22
2018-06-16T15:21:34.071Z,100630.81
2018-06-16T15:24:04.000Z,100627.64
2018-06-16T15:26:33.852Z,100621.31
2018-06-16T15:29:03.043Z,100622.22
2018-06-16T15:31:35.675Z,100628.29
2018-06-16T15:34:05.575Z,100628.94
2018-06-16T15:36:34.870Z,100627.70
2018-06-16T15:39:06.017Z,100628.06
2018-06-16T15:41:35.095Z,100626.00
2018-06-16T15:44:04.624Z,100621.44
2018-06-16T15:46:33.978Z,100622.05
2018-06-16T15:49:03.251Z,100624.88
2018-06-16T15:51:35.936Z,100634.19
2018-06-16T15:54:05.675Z,100628.94
2018-06-16T15:56:34.883Z,100629.33
2018-06-16T15:59:04.480Z,100626.05
2018-06-16T16:01:34.123Z,100622.30
2018-06-16T16:04:03.439Z,100633.64
2018-06-16T16:06:32.448Z,100635.72
2018-06-16T16:09:02.000Z,100627.93
2018-06-16T16:11:34.994Z,100632.97
2018-06-16T16:14:04.219Z,100637.11
2018-06-16T16:16:33.638Z,100634.19
2018-06-16T16:19:02.790Z,100636.45
2018-06-16T16:21:33.770Z,100638.06
2018-06-16T16:24:03.839Z,100636.89
2018-06-16T16:26:32.922Z,100642.05
2018-06-16T16:29:01.924Z,100641.42
2018-06-16T16:31:34.434Z,100646.96
2018-06-16T16:34:04.285Z,100643.20
2018-06-16T16:36:33.771Z,100643.09
2018-06-16T16:39:03.372Z,100650.20
2018-06-16T16:41:33.681Z,100642.88
2018-06-16T16:44:03.136Z,100653.36
2018-06-16T16:46:32.491Z,100646.27
2018-06-16T16:49:01.691Z,100648.30
2018-06-16T16:51:35.027Z,100652.48
2018-06-16T16:54:04.441Z,100649.09
2018-06-16T16:56:33.573Z,100651.00
2018-06-16T16:59:02.742Z,100651.89
2018-06-16T17:01:36.301Z,100654.20
2018-06-16T17:04:05.331Z,100655.41
2018-06-16T17:06:34.503Z,100654.97
2018-06-16T17:09:04.706Z,100654.71
2018-06-16T17:11:33.912Z,100657.42
2018-06-16T17:14:03.064Z,100654.30
2018-06-16T17:16:32.059Z,100658.38
2018-06-16T17:19:01.240Z,100655.90
2018-06-16T17:21:34.450Z,100657.01
2018-06-16T17:24:03.435Z,100656.64
2018-06-16T17:26:32.476Z,100657.80
2018-06-16T17:29:01.447Z,100661.28
2018-06-16T17:31:33.887Z,100659.33
2018-06-16T17:34:03.661Z,100662.12
2018-06-16T17:36:32.673Z,100653.11
2018-06-16T17:39:01.615Z,100654.97
2018-06-16T17:41:33.943Z,100658.39
2018-06-16T17:44:03.118Z,100661.05
2018-06-16T17:46:32.365Z,100663.92
2018-06-16T17:49:01.452Z,100666.48
2018-06-16T17:51:35.725Z,100670.59
2018-06-16T17:54:06.031Z,100679.59
2018-06-16T17:56:35.105Z,100684.09
2018-06-16T17:59:04.140Z,100693.13
2018-06-16T18:01:34.131Z,100692.42
2018-06-16T18:04:03.169Z,100692.86
2018-06-16T18:06:32.371Z,100692.22
2018-06-16T18:09:01.564Z,100699.51
2018-06-16T18:11:34.235Z,100708.03
2018-06-16T18:14:04.319Z,100711.64
2018-06-16T18:16:33.297Z,100714.13
2018-06-16T18:19:02.247Z,100719.73
2018-06-16T18:21:35.239Z,100716.75
2018-06-16T18:24:04.473Z,100723.38
2018-06-16T18:26:33.660Z,100727.97
2018-06-16T18:29:02.590Z,100737.28
2018-06-16T18:31:34.745Z,100747.56
2018-06-16T18:34:03.770Z,100745.89
2018-06-16T18:36:32.768Z,100762.78
2018-06-16T18:39:01.743Z,100767.48
2018-06-16T18:41:34.160Z,100778.59
2018-06-16T18:44:03.692Z,100781.22
2018-06-16T18:46:32.655Z,100792.42
2018-06-16T18:49:01.626Z,100789.84
2018-06-16T18:51:33.580Z,100794.70
2018-06-16T18:54:02.764Z,100792.34
2018-06-16T18:56:32.008Z,100795.49
2018-06-16T18:59:01.642Z,100802.16
2018-06-16T19:01:34.488Z,100796.77
2018-06-16T19:04:03.724Z,100797.62
2018-06-16T19:06:33.376Z,100806.25
2018-06-16T19:09:03.141Z,100808.72
2018-06-16T19:11:34.072Z,100812.57
2018-06-16T19:14:03.133Z,100810.91
2018-06-16T19:16:32.081Z,100810.49
2018-06-16T19:19:01.236Z,100806.37
2018-06-16T19:21:33.367Z,100807.83
2018-06-16T19:24:02.392Z,100797.73
2018-06-16T19:26:31.550Z,100801.63
2018-06-16T19:29:00.557Z,100804.85
2018-06-16T19:31:32.628Z,100812.44
2018-06-16T19:34:01.907Z,100812.66
2018-06-16T19:36:31.859Z,100820.51
2018-06-16T19:39:01.285Z,100816.69
2018-06-16T19:41:33.979Z,100821.08
2018-06-16T19:44:03.252Z,100825.75
2018-06-16T19:46:32.335Z,100834.18
2018-06-16T19:49:01.338Z,100837.14
2018-06-16T19:51:33.276Z,100843.36
2018-06-16T19:54:02.373Z,100843.36
2018-06-16T19:56:31.382Z,100838.52
2018-06-16T19:59:00.424Z,100839.36
2018-06-16T20:01:32.386Z,100844.52
2018-06-16T20:04:01.405Z,100846.73
2018-06-16T20:06:30.342Z,100854.47
2018-06-16T20:08:59.304Z,100855.28
2018-06-16T20:11:32.103Z,100858.52
2018-06-16T20:14:01.676Z,100855.27
2018-06-16T20:16:30.583Z,100847.83
2018-06-16T20:18:59.625Z,100851.84
2018-06-16T20:21:33.344Z,100857.30
2018-06-16T20:24:02.330Z,100878.25
2018-06-16T20:26:31.304Z,100877.89
2018-06-16T20:29:00.315Z,100878.35
2018-06-16T20:31:33.247Z,100879.94
2018-06-16T20:34:02.708Z,100874.08
2018-06-16T20:36:31.688Z,100888.80
2018-06-16T20:39:00.654Z,100888.16
2018-06-16T20:41:32.735Z,100891.71
2018-06-16T20:44:01.681Z,100888.56
2018-06-16T20:46:31.217Z,100880.86
2018-06-16T20:49:01.234Z,100880.72
2018-06-16T20:51:35.312Z,100884.82
2018-06-16T20:54:05.733Z,100880.66
2018-06-16T20:56:35.237Z,100878.84
2018-06-16T20:59:04.503Z,100885.21
2018-06-16T21:01:34.605Z,100879.06
2018-06-16T21:04:04.680Z,100887.65
2018-06-16T21:06:34.157Z,100894.08
2018-06-16T21:09:05.637Z,100888.53
2018-06-16T21:11:38.254Z,100892.66
2018-06-16T21:14:09.100Z,100893.25
2018-06-16T21:16:38.399Z,100892.23
2018-06-16T21:19:08.363Z,100888.70
2018-06-16T21:21:39.189Z,100890.55
2018-06-16T21:24:10.099Z,100891.27
2018-06-16T21:26:39.043Z,100895.34
2018-06-16T21:29:08.057Z,100897.45
2018-06-16T21:31:37.465Z,100896.69
2018-06-16T21:34:06.443Z,100895.98
2018-06-16T21:36:35.394Z,100899.39
2018-06-16T21:39:05.655Z,100899.47
2018-06-16T21:41:34.739Z,100899.71
2018-06-16T21:44:03.780Z,100898.37
2018-06-16T21:46:32.727Z,100904.11
2018-06-16T21:49:08.365Z,100896.73
2018-06-16T21:51:37.704Z,100905.23
2018-06-16T21:54:06.636Z,100908.77
2018-06-16T21:56:35.646Z,100909.70
2018-06-16T21:59:04.694Z,100909.72
2018-06-16T22:01:36.509Z,100911.87
2018-06-16T22:04:05.945Z,100910.26
2018-06-16T22:06:34.980Z,100916.64
2018-06-16T22:09:05.970Z,100909.56
2018-06-16T22:11:34.899Z,100916.43
2018-06-16T22:14:04.063Z,100912.56
2018-06-16T22:16:33.355Z,100900.14
2018-06-16T22:19:04.255Z,100915.41
2018-06-16T22:21:34.589Z,100913.81
2018-06-16T22:24:03.783Z,100914.23
2018-06-16T22:26:32.706Z,100920.12
2018-06-16T22:29:01.827Z,100923.24
2018-06-16T22:31:34.652Z,100923.50
2018-06-16T22:34:04.615Z,100917.20
2018-06-16T22:36:33.580Z,100922.34
2018-06-16T22:39:02.640Z,100908.28
2018-06-16T22:41:35.463Z,100909.89
2018-06-16T22:44:04.549Z,100905.03
2018-06-16T22:46:33.713Z,100901.53
2018-06-16T22:49:02.686Z,100906.98
2018-06-16T22:51:33.367Z,100893.95
2018-06-16T22:54:03.071Z,100899.68
2018-06-16T22:56:32.914Z,100899.19
2018-06-16T22:59:02.293Z,100899.19
2018-06-16T23:01:34.373Z,100902.85
2018-06-16T23:04:03.372Z,100915.26
2018-06-16T23:06:32.295Z,100914.90
2018-06-16T23:09:01.331Z,100919.27
2018-06-16T23:11:33.599Z,100913.92
2018-06-16T23:14:02.579Z,100913.27
2018-06-16T23:16:31.723Z,100913.16
2018-06-16T23:19:01.131Z,100915.47
2018-06-16T23:21:34.148Z,100913.15
2018-06-16T23:24:03.107Z,100912.99
2018-06-16T23:26:32.294Z,100919.81
2018-06-16T23:29:05.193Z,100920.77
2018-06-16T23:31:36.825Z,100919.63
2018-06-16T23:34:05.848Z,100918.48
2018-06-16T23:36:34.805Z,100919.11
2018-06-16T23:39:04.628Z,100922.50
2018-06-16T23:41:33.804Z,100920.52
2018-06-16T23:44:03.533Z,100931.27
2018-06-16T23:46:32.616Z,100937.26
2018-06-16T23:49:01.596Z,100935.07
2018-06-16T23:51:33.779Z,100929.89
2018-06-16T23:54:02.740Z,100928.34
2018-06-16T23:56:31.664Z,100927.69
2018-06-16T23:59:00.665Z,100924.02
